createdAt,value
2023-04-11T00:00:32.419Z,1.90
2023-04-11T00:01:32.519Z,1.90
2023-04-11T00:02:32.484Z,1.70
2023-04-11T00:03:32.457Z,1.90
2023-04-11T00:04:32.422Z,1.80
2023-04-11T00:05:32.377Z,2.10
2023-04-11T00:06:32.357Z,1.80
2023-04-11T00:07:32.326Z,2.10
2023-04-11T00:08:32.294Z,2.00
2023-04-11T00:09:32.278Z,2.00
2023-04-11T00:10:32.322Z,2.00
2023-04-11T00:11:32.244Z,2.30
2023-04-11T00:12:32.271Z,2.10
2023-04-11T00:13:32.227Z,2.30
2023-04-11T00:14:32.260Z,2.30
2023-04-11T00:15:32.224Z,2.40
2023-04-11T00:16:32.246Z,2.10
2023-04-11T00:17:32.222Z,2.00
2023-04-11T00:18:32.176Z,2.30
2023-04-11T00:19:32.194Z,2.50
2023-04-11T00:20:32.171Z,2.20
2023-04-11T00:21:32.206Z,2.10
2023-04-11T00:22:32.194Z,2.40
2023-04-11T00:23:32.119Z,2.40
2023-04-11T00:24:32.158Z,2.40
2023-04-11T00:25:32.124Z,2.20
2023-04-11T00:26:32.168Z,2.50
2023-04-11T00:27:32.101Z,2.50
2023-04-11T00:28:32.083Z,3.00
2023-04-11T00:29:32.097Z,2.60
2023-04-11T00:30:32.071Z,2.50
2023-04-11T00:31:32.093Z,2.50
2023-04-11T00:32:32.101Z,2.40
2023-04-11T00:33:32.055Z,3.20
2023-04-11T00:34:32.006Z,3.00
2023-04-11T00:35:32.097Z,3.10
2023-04-11T00:36:32.108Z,3.00
2023-04-11T00:37:31.984Z,2.90
2023-04-11T00:38:31.951Z,3.20
2023-04-11T00:39:32.601Z,3.40
2023-04-11T00:40:31.928Z,3.20
2023-04-11T00:41:32.641Z,3.30
2023-04-11T00:42:31.890Z,3.20
2023-04-11T00:43:31.885Z,3.20
2023-04-11T00:44:31.950Z,3.60
2023-04-11T00:45:31.932Z,3.10
2023-04-11T00:46:31.883Z,3.50
2023-04-11T00:47:31.957Z,3.20
2023-04-11T00:48:31.829Z,2.50
2023-04-11T00:49:31.853Z,2.90
2023-04-11T00:50:32.603Z,3.20
2023-04-11T00:51:31.883Z,2.90
2023-04-11T00:52:31.776Z,3.40
2023-04-11T00:53:31.900Z,3.40
2023-04-11T00:54:31.866Z,3.50
2023-04-11T00:55:32.721Z,3.50
2023-04-11T00:56:32.341Z,3.80
2023-04-11T00:57:31.944Z,4.30
2023-04-11T00:58:31.713Z,3.80
2023-04-11T00:59:31.774Z,4.50
2023-04-11T01:00:31.690Z,4.20
2023-04-11T01:01:31.717Z,3.80
2023-04-11T01:02:31.731Z,4.20
2023-04-11T01:03:31.959Z,4.00
2023-04-11T01:04:31.637Z,4.60
2023-04-11T01:05:31.693Z,4.90
2023-04-11T01:06:31.627Z,5.00
2023-04-11T01:07:31.612Z,4.90
2023-04-11T01:08:31.588Z,4.90
2023-04-11T01:09:31.588Z,4.60
2023-04-11T01:10:31.570Z,5.10
2023-04-11T01:11:31.589Z,4.80
2023-04-11T01:12:31.548Z,5.00
2023-04-11T01:13:31.542Z,5.30
2023-04-11T01:14:31.532Z,5.00
2023-04-11T01:15:31.547Z,5.20
2023-04-11T01:16:31.526Z,4.80
2023-04-11T01:17:31.552Z,5.00
2023-04-11T01:18:31.477Z,5.20
2023-04-11T01:19:31.473Z,5.20
2023-04-11T01:20:31.458Z,5.10
2023-04-11T01:21:31.471Z,5.30
2023-04-11T01:22:31.448Z,5.00
2023-04-11T01:23:31.586Z,5.10
2023-04-11T01:24:31.413Z,5.20
2023-04-11T01:25:31.430Z,5.10
2023-04-11T01:26:31.411Z,5.30
2023-04-11T01:27:31.386Z,4.70
2023-04-11T01:28:31.376Z,5.00
2023-04-11T01:29:31.357Z,4.90
2023-04-11T01:30:31.374Z,4.60
2023-04-11T01:31:31.359Z,4.50
2023-04-11T01:32:31.365Z,4.70
2023-04-11T01:33:31.364Z,4.60
2023-04-11T01:34:31.323Z,5.10
2023-04-11T01:35:31.346Z,5.00
2023-04-11T01:36:31.320Z,5.00
2023-04-11T01:37:31.273Z,5.30
2023-04-11T01:38:31.255Z,4.80
2023-04-11T01:39:31.256Z,4.80
2023-04-11T01:40:31.232Z,4.80
2023-04-11T01:41:31.226Z,4.60
2023-04-11T01:42:31.238Z,4.90
2023-04-11T01:43:31.208Z,4.50
2023-04-11T01:44:31.192Z,4.70
2023-04-11T01:45:31.176Z,5.00
2023-04-11T01:46:31.227Z,4.70
2023-04-11T01:47:31.210Z,4.80
2023-04-11T01:48:31.243Z,4.80
2023-04-11T01:49:31.145Z,4.70
2023-04-11T01:50:31.121Z,5.00
2023-04-11T01:51:31.119Z,5.10
2023-04-11T01:52:31.093Z,4.80
2023-04-11T01:53:31.112Z,5.00
2023-04-11T01:54:31.077Z,4.80
2023-04-11T01:55:31.064Z,4.90
2023-04-11T01:56:31.081Z,5.20
2023-04-11T01:57:31.071Z,4.70
2023-04-11T01:58:31.030Z,5.30
2023-04-11T01:59:31.041Z,5.10
2023-04-11T02:00:31.005Z,5.40
2023-04-11T02:01:31.043Z,5.00
2023-04-11T02:02:31.045Z,5.30
2023-04-11T02:03:30.998Z,5.40
2023-04-11T02:04:30.980Z,5.30
2023-04-11T02:05:30.952Z,5.30
2023-04-11T02:06:30.940Z,5.60
2023-04-11T02:07:30.934Z,5.10
2023-04-11T02:08:30.933Z,5.80
2023-04-11T02:09:30.904Z,5.20
2023-04-11T02:10:30.919Z,6.10
2023-04-11T02:11:30.901Z,5.50
2023-04-11T02:12:30.875Z,5.20
2023-04-11T02:13:30.881Z,5.40
2023-04-11T02:14:30.840Z,5.50
2023-04-11T02:15:30.939Z,4.60
2023-04-11T02:16:30.842Z,4.90
2023-04-11T02:17:30.855Z,5.00
2023-04-11T02:18:30.799Z,4.60
2023-04-11T02:19:30.800Z,4.00
2023-04-11T02:20:30.776Z,4.70
2023-04-11T02:21:30.805Z,4.30
2023-04-11T02:22:30.761Z,4.60
2023-04-11T02:23:30.755Z,5.20
2023-04-11T02:24:30.738Z,4.70
2023-04-11T02:25:30.743Z,5.10
2023-04-11T02:26:30.704Z,4.70
2023-04-11T02:27:30.731Z,4.70
2023-04-11T02:28:30.689Z,4.80
2023-04-11T02:29:30.678Z,5.10
2023-04-11T02:30:30.658Z,5.00
2023-04-11T02:31:30.717Z,4.90
2023-04-11T02:32:30.684Z,4.80
2023-04-11T02:33:30.633Z,4.70
2023-04-11T02:34:30.626Z,4.90
2023-04-11T02:35:30.641Z,4.90
2023-04-11T02:36:30.601Z,5.20
2023-04-11T02:37:30.615Z,4.30
2023-04-11T02:38:30.598Z,5.20
2023-04-11T02:39:30.563Z,5.20
2023-04-11T02:40:30.552Z,5.50
2023-04-11T02:41:30.541Z,6.10
2023-04-11T02:42:30.533Z,6.20
2023-04-11T02:43:30.524Z,6.40
2023-04-11T02:44:30.524Z,6.30
2023-04-11T02:45:30.496Z,6.70
2023-04-11T02:46:30.493Z,7.10
2023-04-11T02:47:30.503Z,7.80
2023-04-11T02:48:30.464Z,7.10
2023-04-11T02:49:30.491Z,6.90
2023-04-11T02:50:30.427Z,7.00
2023-04-11T02:51:30.433Z,7.80
2023-04-11T02:52:30.453Z,7.60
2023-04-11T02:53:30.409Z,7.20
2023-04-11T02:54:30.399Z,7.40
2023-04-11T02:55:30.411Z,8.00
2023-04-11T02:56:30.365Z,8.00
2023-04-11T02:57:30.367Z,7.00
2023-04-11T02:58:30.352Z,8.40
2023-04-11T02:59:30.337Z,7.50
2023-04-11T03:00:30.349Z,8.20
2023-04-11T03:01:30.337Z,8.10
2023-04-11T03:02:30.511Z,8.20
2023-04-11T03:03:30.320Z,8.10
2023-04-11T03:04:30.306Z,8.20
2023-04-11T03:05:30.281Z,8.10
2023-04-11T03:06:30.266Z,7.80
2023-04-11T03:07:30.248Z,8.10
2023-04-11T03:08:30.230Z,7.90
2023-04-11T03:09:30.221Z,8.20
2023-04-11T03:10:30.209Z,8.50
2023-04-11T03:11:30.226Z,8.80
2023-04-11T03:12:30.179Z,8.30
2023-04-11T03:13:30.178Z,9.50
2023-04-11T03:14:30.168Z,8.50
2023-04-11T03:15:30.166Z,8.70
2023-04-11T03:16:30.215Z,8.80
2023-04-11T03:17:30.182Z,8.60
2023-04-11T03:18:30.114Z,8.90
2023-04-11T03:19:30.142Z,9.70
2023-04-11T03:20:30.095Z,9.00
2023-04-11T03:21:30.086Z,8.40
2023-04-11T03:22:30.097Z,9.20
2023-04-11T03:23:30.070Z,8.70
2023-04-11T03:24:30.049Z,8.70
2023-04-11T03:25:30.038Z,9.10
2023-04-11T03:26:30.042Z,8.50
2023-04-11T03:27:30.026Z,8.50
2023-04-11T03:28:30.080Z,8.40
2023-04-11T03:29:29.995Z,8.60
2023-04-11T03:30:29.988Z,8.10
2023-04-11T03:31:29.995Z,8.20
2023-04-11T03:32:30.073Z,8.40
2023-04-11T03:33:29.955Z,8.20
2023-04-11T03:34:29.991Z,8.30
2023-04-11T03:35:29.949Z,9.00
2023-04-11T03:36:29.947Z,8.10
2023-04-11T03:37:29.909Z,8.00
2023-04-11T03:38:29.898Z,7.40
2023-04-11T03:39:29.892Z,8.40
2023-04-11T03:40:29.910Z,8.20
2023-04-11T03:41:29.867Z,8.90
2023-04-11T03:42:29.848Z,8.70
2023-04-11T03:43:29.855Z,8.60
2023-04-11T03:44:29.832Z,8.70
2023-04-11T03:45:29.825Z,8.50
2023-04-11T03:46:29.879Z,8.80
2023-04-11T03:47:29.840Z,9.30
2023-04-11T03:48:29.789Z,8.20
2023-04-11T03:49:29.769Z,8.50
2023-04-11T03:50:29.770Z,8.60
2023-04-11T03:51:29.762Z,9.20
2023-04-11T03:52:29.767Z,8.40
2023-04-11T03:53:29.726Z,9.30
2023-04-11T03:54:29.714Z,10.10
2023-04-11T03:55:29.719Z,9.20
2023-04-11T03:56:29.687Z,9.20
2023-04-11T03:57:29.717Z,9.20
2023-04-11T03:58:29.665Z,9.50
2023-04-11T03:59:29.671Z,8.80
2023-04-11T04:00:29.645Z,9.70
2023-04-11T04:01:29.644Z,9.20
2023-04-11T04:02:29.746Z,8.80
2023-04-11T04:03:29.919Z,9.50
2023-04-11T04:04:29.648Z,9.20
2023-04-11T04:05:29.594Z,8.90
2023-04-11T04:06:29.573Z,8.90
2023-04-11T04:07:29.575Z,9.10
2023-04-11T04:08:30.097Z,9.10
2023-04-11T04:09:29.541Z,9.10
2023-04-11T04:10:29.531Z,9.30
2023-04-11T04:11:29.529Z,9.60
2023-04-11T04:12:29.502Z,9.10
2023-04-11T04:13:29.498Z,9.80
2023-04-11T04:14:29.519Z,9.80
2023-04-11T04:15:29.476Z,9.30
2023-04-11T04:16:29.497Z,8.70
2023-04-11T04:17:29.505Z,9.00
2023-04-11T04:18:29.440Z,8.00
2023-04-11T04:19:29.463Z,8.40
2023-04-11T04:20:29.418Z,8.20
2023-04-11T04:21:29.404Z,8.80
2023-04-11T04:22:29.387Z,8.80
2023-04-11T04:23:29.387Z,7.70
2023-04-11T04:24:29.366Z,8.50
2023-04-11T04:25:29.371Z,8.30
2023-04-11T04:26:29.346Z,8.10
2023-04-11T04:27:29.350Z,8.20
2023-04-11T04:28:29.319Z,7.20
2023-04-11T04:29:29.329Z,7.40
2023-04-11T04:30:29.326Z,6.50
2023-04-11T04:31:29.334Z,6.30
2023-04-11T04:32:29.315Z,6.20
2023-04-11T04:33:29.268Z,5.10
2023-04-11T04:34:29.319Z,5.00
2023-04-11T04:35:29.275Z,5.10
2023-04-11T04:36:29.257Z,5.10
2023-04-11T04:37:29.242Z,6.40
2023-04-11T04:38:29.206Z,6.00
2023-04-11T04:39:29.201Z,6.20
2023-04-11T04:40:29.199Z,6.70
2023-04-11T04:41:29.206Z,6.50
2023-04-11T04:42:29.170Z,7.00
2023-04-11T04:43:29.155Z,6.70
2023-04-11T04:44:29.169Z,6.40
2023-04-11T04:45:29.183Z,6.20
2023-04-11T04:46:29.123Z,6.50
2023-04-11T04:47:29.155Z,5.90
2023-04-11T04:48:29.095Z,5.10
2023-04-11T04:49:29.099Z,5.50
2023-04-11T04:50:29.070Z,5.10
2023-04-11T04:51:29.074Z,4.90
2023-04-11T04:52:29.075Z,4.90
2023-04-11T04:53:29.035Z,5.20
2023-04-11T04:54:29.033Z,5.00
2023-04-11T04:55:29.027Z,5.30
2023-04-11T04:56:29.003Z,5.10
2023-04-11T04:57:29.004Z,5.30
2023-04-11T04:58:29.024Z,4.70
2023-04-11T04:59:28.997Z,4.30
2023-04-11T05:00:28.963Z,4.40
2023-04-11T05:01:28.981Z,5.00
2023-04-11T05:02:29.138Z,4.10
2023-04-11T05:03:29.114Z,3.70
2023-04-11T05:04:28.970Z,3.70
2023-04-11T05:05:28.942Z,3.60
2023-04-11T05:06:28.890Z,3.00
2023-04-11T05:07:28.910Z,2.60
2023-04-11T05:08:28.880Z,3.00
2023-04-11T05:09:28.861Z,2.70
2023-04-11T05:10:29.294Z,2.70
2023-04-11T05:11:28.850Z,2.50
2023-04-11T05:12:28.820Z,2.80
2023-04-11T05:13:28.870Z,2.80
2023-04-11T05:14:28.797Z,3.20
2023-04-11T05:15:28.795Z,2.90
2023-04-11T05:16:28.863Z,3.40
2023-04-11T05:17:28.824Z,2.80
2023-04-11T05:18:28.768Z,2.70
2023-04-11T05:19:28.793Z,3.00
2023-04-11T05:20:28.739Z,3.10
2023-04-11T05:21:28.761Z,3.00
2023-04-11T05:22:28.710Z,2.70
2023-04-11T05:23:28.740Z,2.80
2023-04-11T05:24:28.699Z,3.20
2023-04-11T05:25:28.692Z,3.00
2023-04-11T05:26:28.685Z,3.10
2023-04-11T05:27:28.683Z,3.20
2023-04-11T05:28:28.649Z,3.20
2023-04-11T05:29:28.719Z,3.20
2023-04-11T05:30:28.652Z,3.20
2023-04-11T05:31:28.633Z,3.10
2023-04-11T05:32:28.661Z,3.10
2023-04-11T05:33:28.597Z,2.70
2023-04-11T05:34:28.567Z,3.30
2023-04-11T05:35:28.598Z,3.10
2023-04-11T05:36:28.542Z,2.90
2023-04-11T05:37:28.541Z,3.10
2023-04-11T05:38:28.551Z,2.40
2023-04-11T05:39:28.518Z,2.60
2023-04-11T05:40:28.505Z,2.90
2023-04-11T05:41:28.498Z,2.70
2023-04-11T05:42:28.485Z,2.90
2023-04-11T05:43:29.691Z,2.70
2023-04-11T05:46:33.659Z,2.80
2023-04-11T05:47:34.540Z,2.80
2023-04-11T05:48:34.516Z,2.80
2023-04-11T05:49:34.524Z,3.10
2023-04-11T05:50:34.504Z,2.80
2023-04-11T05:51:34.478Z,3.00
2023-04-11T05:52:34.478Z,2.80
2023-04-11T05:53:34.465Z,3.00
2023-04-11T05:54:34.448Z,3.10
2023-04-11T05:55:34.452Z,3.20
2023-04-11T05:56:34.426Z,3.30
2023-04-11T05:57:34.421Z,2.80
2023-04-11T05:58:34.404Z,2.90
2023-04-11T05:59:34.384Z,3.30
2023-04-11T06:00:34.401Z,3.00
2023-04-11T06:01:34.393Z,3.10
2023-04-11T06:02:34.493Z,3.00
2023-04-11T06:03:34.469Z,3.30
2023-04-11T06:04:34.615Z,3.30
2023-04-11T06:05:34.316Z,3.30
2023-04-11T06:06:34.337Z,3.20
2023-04-11T06:07:34.296Z,3.40
2023-04-11T06:08:34.308Z,3.50
2023-04-11T06:09:34.342Z,3.60
2023-04-11T06:10:34.283Z,3.20
2023-04-11T06:11:34.278Z,3.10
2023-04-11T06:12:34.250Z,3.10
2023-04-11T06:13:34.241Z,3.40
2023-04-11T06:14:34.228Z,3.40
2023-04-11T06:15:34.292Z,3.80
2023-04-11T06:16:34.230Z,4.20
2023-04-11T06:17:34.221Z,4.70
2023-04-11T06:18:34.191Z,4.40
2023-04-11T06:19:34.180Z,4.10
2023-04-11T06:20:34.168Z,5.10
2023-04-11T06:21:34.153Z,4.90
2023-04-11T06:22:34.163Z,4.60
2023-04-11T06:23:34.120Z,4.50
2023-04-11T06:24:34.122Z,4.70
2023-04-11T06:25:34.099Z,5.90
2023-04-11T06:26:34.093Z,5.40
2023-04-11T06:27:34.087Z,5.00
2023-04-11T06:28:34.098Z,5.30
2023-04-11T06:29:34.058Z,5.40
2023-04-11T06:30:34.042Z,5.20
2023-04-11T06:31:34.189Z,5.30
2023-04-11T06:32:34.076Z,5.80
2023-04-11T06:33:34.032Z,5.40
2023-04-11T06:34:34.052Z,5.30
2023-04-11T06:35:34.048Z,5.10
2023-04-11T06:36:34.026Z,5.50
2023-04-11T06:37:33.974Z,5.20
2023-04-11T06:38:33.981Z,4.80
2023-04-11T06:39:34.009Z,5.00
2023-04-11T06:40:33.972Z,5.30
2023-04-11T06:41:33.926Z,5.10
2023-04-11T06:42:33.958Z,4.90
2023-04-11T06:43:33.936Z,4.40
2023-04-11T06:44:33.926Z,4.50
2023-04-11T06:45:33.906Z,4.50
2023-04-11T06:46:33.875Z,4.60
2023-04-11T06:47:33.908Z,4.20
2023-04-11T06:48:33.860Z,4.50
2023-04-11T06:49:33.880Z,4.40
2023-04-11T06:50:33.827Z,4.90
2023-04-11T06:51:33.828Z,4.70
2023-04-11T06:52:33.830Z,2.60
2023-04-11T06:53:33.794Z,2.90
2023-04-11T06:54:33.791Z,2.30
2023-04-11T06:55:33.779Z,2.60
2023-04-11T06:56:33.796Z,2.60
2023-04-11T06:57:33.742Z,2.70
2023-04-11T06:58:33.745Z,3.20
2023-04-11T06:59:33.729Z,3.40
2023-04-11T07:00:33.720Z,3.10
2023-04-11T07:01:33.749Z,3.10
2023-04-11T07:02:33.958Z,3.30
2023-04-11T07:03:33.789Z,4.00
2023-04-11T07:04:33.807Z,4.00
2023-04-11T07:05:33.656Z,4.60
2023-04-11T07:06:33.700Z,4.10
2023-04-11T07:07:33.637Z,4.60
2023-04-11T07:08:33.662Z,5.20
2023-04-11T07:09:33.616Z,5.20
2023-04-11T07:10:33.646Z,5.00
2023-04-11T07:11:33.586Z,5.00
2023-04-11T07:12:33.588Z,5.20
2023-04-11T07:13:33.567Z,5.00
2023-04-11T07:14:33.585Z,5.10
2023-04-11T07:15:33.550Z,4.40
2023-04-11T07:16:33.593Z,4.40
2023-04-11T07:17:33.636Z,4.10
2023-04-11T07:18:33.540Z,4.00
2023-04-11T07:19:33.552Z,4.00
2023-04-11T07:20:33.514Z,3.70
2023-04-11T07:21:33.509Z,4.50
2023-04-11T07:22:33.466Z,3.80
2023-04-11T07:23:33.470Z,4.30
2023-04-11T07:24:33.445Z,3.70
2023-04-11T07:25:33.465Z,3.10
2023-04-11T07:26:33.425Z,3.10
2023-04-11T07:27:33.418Z,3.10
2023-04-11T07:28:33.396Z,3.50
2023-04-11T07:29:33.399Z,3.30
2023-04-11T07:30:33.443Z,3.40
2023-04-11T07:31:33.403Z,3.00
2023-04-11T07:32:33.415Z,2.70
2023-04-11T07:33:33.336Z,2.70
2023-04-11T07:34:33.356Z,2.70
2023-04-11T07:35:33.364Z,2.30
2023-04-11T07:36:33.376Z,2.60
2023-04-11T07:37:33.293Z,2.30
2023-04-11T07:38:33.318Z,2.40
2023-04-11T07:39:33.285Z,3.00
2023-04-11T07:40:33.262Z,3.80
2023-04-11T07:41:33.292Z,4.50
2023-04-11T07:42:33.258Z,4.20
2023-04-11T07:43:33.245Z,3.10
2023-04-11T07:44:33.224Z,2.60
2023-04-11T07:45:33.281Z,2.50
2023-04-11T07:46:33.203Z,2.10
2023-04-11T07:47:33.277Z,2.20
2023-04-11T07:48:33.181Z,2.30
2023-04-11T07:49:33.170Z,2.30
2023-04-11T07:50:33.154Z,2.00
2023-04-11T07:51:33.148Z,2.00
2023-04-11T07:52:33.147Z,1.90
2023-04-11T07:53:33.186Z,1.70
2023-04-11T07:54:33.126Z,2.20
2023-04-11T07:55:33.101Z,2.30
2023-04-11T07:56:33.099Z,2.50
2023-04-11T07:57:33.072Z,2.40
2023-04-11T07:58:33.073Z,2.10
2023-04-11T07:59:33.077Z,2.10
2023-04-11T08:00:33.055Z,1.80
2023-04-11T08:01:33.047Z,2.20
2023-04-11T08:02:33.424Z,1.70
2023-04-11T08:03:33.182Z,2.10
2023-04-11T08:04:33.156Z,2.30
2023-04-11T08:05:33.036Z,2.40
2023-04-11T08:06:32.980Z,1.80
2023-04-11T08:07:32.963Z,2.10
2023-04-11T08:08:32.954Z,1.80
2023-04-11T08:09:32.943Z,1.90
2023-04-11T08:10:32.937Z,1.90
2023-04-11T08:11:32.941Z,2.10
2023-04-11T08:12:32.918Z,2.10
2023-04-11T08:13:32.889Z,1.90
2023-04-11T08:14:32.915Z,2.10
2023-04-11T08:15:32.887Z,2.00
2023-04-11T08:16:32.923Z,1.80
2023-04-11T08:17:33.121Z,2.20
2023-04-11T08:18:32.842Z,2.10
2023-04-11T08:19:32.829Z,2.10
2023-04-11T08:20:32.817Z,1.90
2023-04-11T08:21:32.812Z,2.00
2023-04-11T08:22:32.851Z,2.10
2023-04-11T08:23:32.792Z,2.20
2023-04-11T08:24:32.784Z,1.60
2023-04-11T08:25:32.760Z,1.80
2023-04-11T08:26:32.752Z,2.10
2023-04-11T08:27:32.747Z,1.90
2023-04-11T08:28:32.761Z,2.20
2023-04-11T08:29:32.744Z,1.90
2023-04-11T08:30:32.731Z,2.30
2023-04-11T08:31:32.696Z,2.00
2023-04-11T08:32:32.730Z,2.30
2023-04-11T08:33:32.667Z,2.30
2023-04-11T08:34:32.715Z,2.50
2023-04-11T08:35:32.680Z,2.10
2023-04-11T08:36:32.659Z,2.30
2023-04-11T08:37:32.643Z,2.00
2023-04-11T08:38:32.633Z,2.20
2023-04-11T08:39:32.606Z,2.60
2023-04-11T08:40:32.648Z,2.00
2023-04-11T08:41:32.590Z,2.10
2023-04-11T08:42:32.574Z,2.20
2023-04-11T08:43:32.560Z,1.70
2023-04-11T08:44:32.554Z,2.00
2023-04-11T08:45:32.544Z,2.40
2023-04-11T08:46:32.584Z,2.40
2023-04-11T08:47:32.543Z,2.10
2023-04-11T08:48:32.572Z,2.00
2023-04-11T08:49:32.494Z,2.10
2023-04-11T08:50:32.492Z,2.30
2023-04-11T08:51:32.471Z,2.20
2023-04-11T08:52:32.537Z,2.70
2023-04-11T08:53:32.451Z,1.90
2023-04-11T08:54:32.453Z,1.80
2023-04-11T08:55:32.428Z,2.10
2023-04-11T08:56:32.416Z,2.50
2023-04-11T08:57:32.427Z,2.00
2023-04-11T08:58:32.429Z,2.00
2023-04-11T08:59:32.382Z,2.40
2023-04-11T09:00:32.634Z,2.10
2023-04-11T09:01:32.702Z,2.20
2023-04-11T09:02:32.402Z,2.10
2023-04-11T09:03:32.395Z,2.30
2023-04-11T09:04:32.316Z,2.10
2023-04-11T09:05:32.309Z,2.00
2023-04-11T09:06:32.304Z,2.00
2023-04-11T09:07:32.304Z,2.30
2023-04-11T09:08:32.281Z,2.10
2023-04-11T09:09:32.284Z,2.40
2023-04-11T09:10:32.263Z,2.00
2023-04-11T09:11:32.336Z,2.30
2023-04-11T09:12:32.239Z,2.30
2023-04-11T09:13:32.224Z,1.90
2023-04-11T09:14:32.619Z,2.10
2023-04-11T09:15:32.228Z,2.10
2023-04-11T09:16:32.201Z,2.20
2023-04-11T09:17:32.214Z,2.20
2023-04-11T09:18:32.173Z,2.00
2023-04-11T09:19:32.159Z,2.00
2023-04-11T09:20:32.168Z,2.30
2023-04-11T09:21:32.496Z,2.30
2023-04-11T09:22:32.120Z,2.00
2023-04-11T09:23:32.109Z,2.00
2023-04-11T09:24:34.006Z,2.50
2023-04-11T09:25:32.117Z,2.00
2023-04-11T09:26:32.077Z,2.40
2023-04-11T09:27:32.067Z,2.30
2023-04-11T09:28:32.056Z,2.10
2023-04-11T09:29:32.050Z,2.20
2023-04-11T09:30:32.051Z,2.70
2023-04-11T09:31:32.060Z,2.40
2023-04-11T09:32:34.641Z,2.70
2023-04-11T09:33:32.012Z,2.10
2023-04-11T09:34:31.988Z,2.50
2023-04-11T09:35:32.049Z,2.40
2023-04-11T09:36:31.977Z,2.10
2023-04-11T09:37:31.954Z,2.40
2023-04-11T09:38:31.973Z,2.20
2023-04-11T09:39:31.936Z,2.40
2023-04-11T09:40:31.972Z,2.30
2023-04-11T09:41:31.912Z,2.60
2023-04-11T09:42:31.899Z,2.20
2023-04-11T09:43:31.899Z,2.60
2023-04-11T09:44:31.875Z,2.30
2023-04-11T09:45:38.117Z,2.20
2023-04-11T09:46:31.887Z,2.70
2023-04-11T09:47:31.895Z,2.20
2023-04-11T09:48:45.511Z,2.40
2023-04-11T09:49:31.854Z,2.50
2023-04-11T09:50:31.824Z,2.30
2023-04-11T09:51:35.959Z,2.50
2023-04-11T09:52:31.795Z,2.70
2023-04-11T09:53:31.773Z,2.60
2023-04-11T09:54:31.757Z,2.40
2023-04-11T09:55:31.780Z,2.50
2023-04-11T09:56:31.785Z,2.30
2023-04-11T09:57:31.734Z,2.20
2023-04-11T09:58:31.718Z,2.50
2023-04-11T09:59:31.709Z,2.80
2023-04-11T10:00:31.723Z,2.30
2023-04-11T10:01:31.707Z,2.70
2023-04-11T10:02:31.803Z,2.40
2023-04-11T10:03:31.677Z,2.30
2023-04-11T10:04:31.688Z,2.50
2023-04-11T10:05:31.678Z,2.40
2023-04-11T10:06:31.932Z,2.20
2023-04-11T10:07:31.625Z,2.40
2023-04-11T10:08:31.601Z,2.60
2023-04-11T10:09:31.607Z,2.50
2023-04-11T10:10:31.653Z,2.20
2023-04-11T10:11:31.582Z,2.20
2023-04-11T10:12:31.582Z,2.40
2023-04-11T10:13:31.549Z,2.70
2023-04-11T10:14:31.552Z,2.30
2023-04-11T10:15:31.552Z,2.70
2023-04-11T10:16:31.542Z,2.40
2023-04-11T10:17:31.534Z,2.10
2023-04-11T10:18:31.496Z,2.60
2023-04-11T10:19:31.495Z,2.40
2023-04-11T10:20:31.500Z,2.70
2023-04-11T10:21:31.460Z,2.80
2023-04-11T10:22:31.444Z,2.90
2023-04-11T10:23:31.446Z,2.70
2023-04-11T10:24:31.429Z,2.40
2023-04-11T10:25:31.453Z,2.60
2023-04-11T10:26:31.411Z,2.50
2023-04-11T10:27:31.399Z,2.40
2023-04-11T10:28:31.379Z,2.00
2023-04-11T10:29:31.395Z,2.10
2023-04-11T10:30:31.381Z,2.10
2023-04-11T10:31:31.457Z,2.60
2023-04-11T10:32:31.382Z,2.10
2023-04-11T10:33:31.348Z,2.10
2023-04-11T10:34:31.323Z,2.10
2023-04-11T10:35:31.357Z,2.20
2023-04-11T10:36:31.294Z,2.40
2023-04-11T10:37:31.292Z,2.00
2023-04-11T10:38:31.274Z,2.00
2023-04-11T10:39:31.270Z,2.10
2023-04-11T10:40:31.281Z,2.00
2023-04-11T10:41:31.250Z,1.80
2023-04-11T10:42:31.227Z,2.40
2023-04-11T10:43:31.248Z,2.30
2023-04-11T10:44:31.205Z,2.20
2023-04-11T10:45:31.221Z,2.50
2023-04-11T10:46:31.231Z,2.50
2023-04-11T10:47:31.220Z,3.00
2023-04-11T10:48:31.158Z,2.70
2023-04-11T10:49:31.154Z,2.70
2023-04-11T10:50:31.158Z,2.40
2023-04-11T10:51:31.134Z,2.60
2023-04-11T10:52:31.113Z,2.80
2023-04-11T10:53:31.110Z,3.00
2023-04-11T10:54:31.109Z,2.70
2023-04-11T10:55:31.103Z,2.50
2023-04-11T10:56:31.073Z,3.00
2023-04-11T10:57:31.059Z,2.80
2023-04-11T10:58:31.053Z,2.80
2023-04-11T10:59:31.066Z,2.40
2023-04-11T11:00:32.649Z,2.80
2023-04-11T11:01:37.161Z,2.50
2023-04-11T11:02:31.130Z,3.10
2023-04-11T11:03:31.133Z,2.50
2023-04-11T11:04:31.023Z,2.40
2023-04-11T11:05:30.985Z,2.80
2023-04-11T11:06:30.953Z,2.60
2023-04-11T11:07:30.951Z,2.30
2023-04-11T11:08:30.955Z,2.70
2023-04-11T11:09:30.927Z,2.40
2023-04-11T11:10:30.923Z,2.10
2023-04-11T11:11:30.900Z,2.20
2023-04-11T11:12:30.880Z,2.00
2023-04-11T11:13:30.882Z,2.20
2023-04-11T11:14:30.859Z,2.50
2023-04-11T11:15:30.874Z,2.00
2023-04-11T11:16:30.854Z,2.50
2023-04-11T11:17:30.878Z,2.30
2023-04-11T11:18:30.819Z,2.20
2023-04-11T11:19:30.811Z,2.40
2023-04-11T11:20:30.810Z,2.30
2023-04-11T11:21:30.784Z,2.30
2023-04-11T11:22:30.781Z,2.40
2023-04-11T11:23:30.765Z,2.50
2023-04-11T11:24:30.761Z,2.70
2023-04-11T11:25:30.763Z,2.40
2023-04-11T11:26:30.728Z,2.30
2023-04-11T11:27:30.717Z,2.30
2023-04-11T11:28:30.707Z,2.30
2023-04-11T11:29:30.693Z,2.70
2023-04-11T11:30:30.714Z,2.10
2023-04-11T11:31:30.698Z,2.50
2023-04-11T11:32:30.677Z,2.10
2023-04-11T11:33:30.667Z,2.20
2023-04-11T11:34:30.640Z,2.20
2023-04-11T11:35:30.660Z,1.80
2023-04-11T11:36:30.623Z,2.50
2023-04-11T11:37:30.609Z,1.90
2023-04-11T11:38:30.613Z,2.30
2023-04-11T11:39:30.582Z,2.10
2023-04-11T11:40:30.593Z,2.00
2023-04-11T11:41:30.558Z,1.90
2023-04-11T11:42:30.561Z,2.00
2023-04-11T11:43:30.534Z,1.90
2023-04-11T11:44:30.525Z,2.10
2023-04-11T11:45:30.548Z,2.20
2023-04-11T11:46:30.551Z,2.20
2023-04-11T11:47:30.522Z,2.20
2023-04-11T11:48:30.471Z,2.00
2023-04-11T11:49:30.467Z,2.10
2023-04-11T11:50:30.474Z,2.20
2023-04-11T11:51:30.453Z,2.40
2023-04-11T11:52:30.433Z,2.40
2023-04-11T11:53:30.428Z,2.20
2023-04-11T11:54:30.411Z,2.10
2023-04-11T11:55:30.421Z,2.30
2023-04-11T11:56:30.395Z,2.00
2023-04-11T11:57:30.377Z,2.30
2023-04-11T11:58:30.380Z,1.70
2023-04-11T11:59:30.358Z,1.90
2023-04-11T12:00:30.372Z,2.10
2023-04-11T12:01:30.338Z,2.20
2023-04-11T12:02:30.500Z,2.10
2023-04-11T12:03:30.445Z,1.90
2023-04-11T12:04:30.539Z,2.00
2023-04-11T12:05:30.914Z,2.00
2023-04-11T12:06:30.276Z,2.10
2023-04-11T12:07:30.269Z,1.80
2023-04-11T12:08:30.265Z,1.90
2023-04-11T12:09:30.243Z,1.90
2023-04-11T12:10:30.255Z,2.30
2023-04-11T12:11:30.228Z,2.10
2023-04-11T12:12:30.237Z,2.20
2023-04-11T12:13:30.199Z,2.40
2023-04-11T12:14:30.185Z,1.70
2023-04-11T12:15:30.201Z,1.90
2023-04-11T12:16:30.285Z,1.80
2023-04-11T12:17:30.202Z,2.00
2023-04-11T12:18:30.148Z,1.80
2023-04-11T12:19:30.138Z,2.10
2023-04-11T12:20:30.149Z,2.20
2023-04-11T12:21:30.114Z,2.50
2023-04-11T12:22:30.110Z,2.50
2023-04-11T12:23:30.110Z,2.10
2023-04-11T12:24:30.076Z,2.30
2023-04-11T12:25:30.115Z,2.10
2023-04-11T12:26:30.061Z,2.00
2023-04-11T12:27:30.051Z,2.10
2023-04-11T12:28:30.034Z,2.30
2023-04-11T12:29:30.037Z,2.60
2023-04-11T12:30:30.267Z,3.40
2023-04-11T12:31:30.093Z,2.30
2023-04-11T12:32:30.003Z,2.50
2023-04-11T12:33:29.982Z,2.30
2023-04-11T12:34:29.964Z,2.00
2023-04-11T12:35:29.975Z,1.90
2023-04-11T12:36:30.071Z,2.10
2023-04-11T12:37:29.940Z,1.90
2023-04-11T12:38:29.920Z,1.90
2023-04-11T12:39:29.913Z,1.90
2023-04-11T12:40:30.002Z,1.80
2023-04-11T12:41:32.617Z,1.60
2023-04-11T12:42:29.874Z,1.80
2023-04-11T12:43:29.869Z,2.10
2023-04-11T12:44:29.861Z,1.90
2023-04-11T12:45:29.896Z,1.90
2023-04-11T12:46:29.850Z,1.90
2023-04-11T12:47:29.910Z,2.10
2023-04-11T12:48:29.841Z,2.00
2023-04-11T12:49:29.797Z,1.80
2023-04-11T12:50:29.800Z,1.60
2023-04-11T12:51:29.782Z,2.10
2023-04-11T12:52:29.754Z,1.40
2023-04-11T12:53:29.755Z,1.90
2023-04-11T12:54:29.735Z,1.60
2023-04-11T12:55:30.060Z,1.40
2023-04-11T12:56:29.710Z,1.80
2023-04-11T12:57:29.704Z,1.30
2023-04-11T12:58:29.710Z,1.50
2023-04-11T12:59:30.727Z,1.40
2023-04-11T13:00:29.698Z,1.50
2023-04-11T13:01:29.685Z,1.60
2023-04-11T13:02:35.405Z,1.30
2023-04-11T13:03:29.858Z,1.40
2023-04-11T13:04:29.688Z,1.30
2023-04-11T13:05:29.654Z,1.40
2023-04-11T13:06:29.605Z,2.00
2023-04-11T13:07:29.613Z,1.40
2023-04-11T13:08:29.594Z,1.80
2023-04-11T13:09:29.579Z,2.40
2023-04-11T13:10:29.584Z,1.40
2023-04-11T13:11:29.555Z,1.60
2023-04-11T13:12:29.536Z,1.30
2023-04-11T13:13:29.547Z,1.40
2023-04-11T13:14:29.525Z,1.70
2023-04-11T13:15:29.530Z,1.30
2023-04-11T13:16:29.543Z,1.40
2023-04-11T13:17:29.510Z,1.40
2023-04-11T13:18:29.471Z,1.20
2023-04-11T13:19:29.466Z,1.60
2023-04-11T13:20:29.473Z,1.40